createdAt,value
2023-03-06T00:01:02.458Z,2.92
2023-03-06T00:02:25.176Z,3.53
2023-03-06T00:03:48.596Z,2.70
2023-03-06T00:05:11.468Z,3.05
2023-03-06T00:06:34.830Z,2.80
2023-03-06T00:07:58.343Z,3.42
2023-03-06T00:09:20.775Z,3.60
2023-03-06T00:10:44.487Z,3.63
2023-03-06T00:12:10.104Z,3.10
2023-03-06T00:13:34.415Z,3.28
2023-03-06T00:14:58.625Z,3.05
2023-03-06T00:16:22.008Z,3.25
2023-03-06T00:17:44.425Z,3.22
2023-03-06T00:19:07.849Z,3.55
2023-03-06T00:20:30.284Z,3.25
2023-03-06T00:21:54.628Z,3.47
2023-03-06T00:23:17.048Z,3.15
2023-03-06T00:24:40.440Z,2.72
2023-03-06T00:26:02.892Z,3.13
2023-03-06T00:27:27.632Z,3.00
2023-03-06T00:28:51.008Z,3.00
2023-03-06T00:30:15.020Z,2.55
2023-03-06T00:31:38.577Z,2.70
2023-03-06T00:33:01.977Z,2.92
2023-03-06T00:34:24.644Z,2.47
2023-03-06T00:35:48.909Z,2.05
2023-03-06T00:37:11.624Z,2.80
2023-03-06T00:38:35.609Z,2.40
2023-03-06T00:39:58.003Z,2.35
2023-03-06T00:41:22.151Z,2.80
2023-03-06T00:42:47.191Z,2.72
2023-03-06T00:44:10.559Z,2.85
2023-03-06T00:45:33.068Z,2.25
2023-03-06T00:46:56.752Z,2.78
2023-03-06T00:48:19.191Z,3.00
2023-03-06T00:49:42.694Z,2.58
2023-03-06T00:51:06.993Z,2.40
2023-03-06T00:52:31.146Z,2.60
2023-03-06T00:53:54.503Z,2.72
2023-03-06T00:55:17.179Z,2.20
2023-03-06T00:56:40.546Z,3.13
2023-03-06T00:58:05.918Z,2.40
2023-03-06T00:59:29.322Z,2.28
2023-03-06T01:00:52.792Z,2.10
2023-03-06T01:02:15.224Z,2.65
2023-03-06T01:03:40.036Z,1.98
2023-03-06T01:05:03.416Z,2.05
2023-03-06T01:06:25.797Z,2.13
2023-03-06T01:07:49.214Z,2.25
2023-03-06T01:09:11.708Z,2.17
2023-03-06T01:10:35.237Z,2.35
2023-03-06T01:11:58.615Z,2.65
2023-03-06T01:13:23.406Z,2.40
2023-03-06T01:14:45.954Z,2.33
2023-03-06T01:16:10.426Z,2.78
2023-03-06T01:17:32.857Z,3.03
2023-03-06T01:18:56.201Z,2.80
2023-03-06T01:20:19.198Z,2.58
2023-03-06T01:21:42.735Z,2.33
2023-03-06T01:23:06.103Z,2.10
2023-03-06T01:24:29.455Z,2.38
2023-03-06T01:25:51.874Z,2.45
2023-03-06T01:27:15.216Z,2.13
2023-03-06T01:28:40.612Z,1.85
2023-03-06T01:30:03.641Z,2.55
2023-03-06T01:31:29.128Z,2.33
2023-03-06T01:32:51.533Z,2.60
2023-03-06T01:34:14.929Z,6.75
2023-03-06T01:35:39.913Z,5.90
2023-03-06T01:37:02.302Z,4.47
2023-03-06T01:38:25.713Z,2.53
2023-03-06T01:39:48.107Z,3.25
2023-03-06T01:41:15.572Z,3.28
2023-03-06T01:42:39.786Z,2.60
2023-03-06T01:44:04.866Z,2.70
2023-03-06T01:46:05.470Z,3.50
2023-03-06T01:47:29.077Z,2.60
2023-03-06T01:48:54.284Z,2.85
2023-03-06T01:50:17.952Z,2.63
2023-03-06T01:51:45.480Z,3.20
2023-03-06T01:53:07.930Z,3.03
2023-03-06T01:54:34.406Z,3.25
2023-03-06T01:55:56.788Z,2.90
2023-03-06T01:57:23.233Z,3.30
2023-03-06T01:58:46.174Z,2.88
2023-03-06T02:00:13.037Z,3.10
2023-03-06T02:01:37.532Z,3.20
2023-03-06T02:03:05.490Z,3.60
2023-03-06T02:04:29.636Z,2.85
2023-03-06T02:05:55.331Z,3.58
2023-03-06T02:07:20.546Z,3.15
2023-03-06T02:08:42.953Z,3.13
2023-03-06T02:10:07.293Z,3.50
2023-03-06T02:11:30.846Z,3.67
2023-03-06T02:12:54.596Z,3.45
2023-03-06T02:14:19.047Z,4.22
2023-03-06T02:15:42.790Z,3.25
2023-03-06T02:17:06.377Z,3.35
2023-03-06T02:18:29.150Z,3.50
2023-03-06T02:19:57.150Z,3.17
2023-03-06T02:21:24.535Z,3.17
2023-03-06T02:22:50.156Z,3.08
2023-03-06T02:24:22.750Z,3.58
2023-03-06T02:25:48.423Z,3.30
2023-03-06T02:27:12.454Z,3.38
2023-03-06T02:28:34.982Z,3.30
2023-03-06T02:29:58.360Z,2.85
2023-03-06T02:31:23.750Z,3.35
2023-03-06T02:32:47.088Z,3.15
2023-03-06T02:34:54.102Z,2.90
2023-03-06T02:36:17.858Z,2.92
2023-03-06T02:37:41.285Z,3.00
2023-03-06T02:39:04.036Z,2.85
2023-03-06T02:40:27.649Z,2.50
2023-03-06T02:41:51.446Z,3.05
2023-03-06T02:43:16.700Z,3.08
2023-03-06T02:44:39.143Z,2.90
2023-03-06T02:46:02.691Z,3.38
2023-03-06T02:47:25.203Z,3.22
2023-03-06T02:48:48.565Z,2.50
2023-03-06T02:50:12.720Z,2.90
2023-03-06T02:51:36.787Z,2.85
2023-03-06T02:53:00.200Z,2.35
2023-03-06T02:54:22.562Z,2.83
2023-03-06T02:55:46.444Z,3.00
2023-03-06T02:57:11.322Z,2.78
2023-03-06T02:58:34.724Z,2.67
2023-03-06T02:59:57.078Z,2.75
2023-03-06T03:01:20.520Z,2.60
2023-03-06T03:02:43.110Z,2.90
2023-03-06T03:04:07.068Z,2.78
2023-03-06T03:05:29.500Z,2.38
2023-03-06T03:06:52.845Z,2.50
2023-03-06T03:08:17.128Z,2.72
2023-03-06T03:09:39.489Z,2.80
2023-03-06T03:11:03.107Z,2.67
2023-03-06T03:12:28.633Z,2.28
2023-03-06T03:13:53.847Z,2.63
2023-03-06T03:15:16.334Z,2.40
2023-03-06T03:16:39.702Z,2.15
2023-03-06T03:18:03.063Z,2.03
2023-03-06T03:19:25.531Z,2.00
2023-03-06T03:20:48.880Z,2.40
2023-03-06T03:22:11.265Z,2.22
2023-03-06T03:23:34.617Z,1.90
2023-03-06T03:24:57.136Z,2.22
2023-03-06T03:26:22.220Z,1.80
2023-03-06T03:27:47.177Z,2.13
2023-03-06T03:29:10.691Z,2.15
2023-03-06T03:30:34.240Z,2.38
2023-03-06T03:31:57.652Z,2.67
2023-03-06T03:33:20.149Z,1.98
2023-03-06T03:34:43.707Z,2.25
2023-03-06T03:36:08.131Z,2.00
2023-03-06T03:37:31.493Z,1.80
2023-03-06T03:38:54.207Z,1.85
2023-03-06T03:40:17.768Z,2.10
2023-03-06T03:41:40.148Z,2.20
2023-03-06T03:43:04.867Z,1.63
2023-03-06T03:44:27.247Z,2.03
2023-03-06T03:45:50.605Z,1.88
2023-03-06T03:47:13.962Z,1.80
2023-03-06T03:48:36.365Z,1.88
2023-03-06T03:49:59.725Z,1.80
2023-03-06T03:51:22.203Z,1.50
2023-03-06T03:52:45.624Z,1.92
2023-03-06T03:54:08.118Z,1.63
2023-03-06T03:55:31.782Z,1.77
2023-03-06T03:56:55.221Z,1.80
2023-03-06T03:58:20.564Z,1.58
2023-03-06T03:59:43.945Z,1.90
2023-03-06T04:01:07.183Z,1.73
2023-03-06T04:02:30.575Z,1.80
2023-03-06T04:03:53.170Z,1.58
2023-03-06T04:05:17.662Z,1.88
2023-03-06T04:06:41.041Z,2.15
2023-03-06T04:08:04.304Z,1.80
2023-03-06T04:09:28.627Z,1.83
2023-03-06T04:10:51.364Z,2.00
2023-03-06T04:12:14.747Z,1.73
2023-03-06T04:13:39.522Z,1.63
2023-03-06T04:15:03.766Z,1.85
2023-03-06T04:16:27.937Z,1.63
2023-03-06T04:17:51.353Z,1.88
2023-03-06T04:19:18.516Z,2.00
2023-03-06T04:20:42.724Z,1.73
2023-03-06T04:22:10.251Z,1.35
2023-03-06T04:23:32.787Z,1.95
2023-03-06T04:24:56.243Z,1.40
2023-03-06T04:26:19.483Z,1.25
2023-03-06T04:27:42.836Z,1.20
2023-03-06T04:29:07.610Z,1.75
2023-03-06T04:30:30.214Z,1.42
2023-03-06T04:31:53.591Z,1.02
2023-03-06T04:33:16.184Z,1.38
2023-03-06T04:34:39.623Z,1.30
2023-03-06T04:36:03.007Z,1.17
2023-03-06T04:37:27.636Z,1.00
2023-03-06T04:38:50.068Z,0.90
2023-03-06T04:40:18.586Z,1.10
2023-03-06T04:41:42.237Z,0.88
2023-03-06T04:43:05.913Z,1.42
2023-03-06T04:44:31.016Z,1.50
2023-03-06T04:45:53.454Z,0.80
2023-03-06T04:47:19.039Z,1.13
2023-03-06T04:48:42.906Z,1.00
2023-03-06T04:50:06.440Z,0.77
2023-03-06T04:51:29.932Z,1.35
2023-03-06T04:52:52.514Z,1.42
2023-03-06T04:54:17.949Z,0.95
2023-03-06T04:55:42.319Z,0.90
2023-03-06T04:57:04.753Z,1.00
2023-03-06T04:58:28.447Z,1.50
2023-03-06T04:59:54.150Z,1.40
2023-03-06T05:01:17.598Z,1.10
2023-03-06T05:02:42.716Z,1.00
2023-03-06T05:04:06.264Z,0.90
2023-03-06T05:05:30.216Z,1.05
2023-03-06T05:06:53.610Z,1.40
2023-03-06T05:08:18.143Z,1.20
2023-03-06T05:09:41.521Z,1.30
2023-03-06T05:11:09.632Z,1.00
2023-03-06T05:12:33.005Z,0.98
2023-03-06T05:13:56.434Z,1.40
2023-03-06T05:15:21.400Z,1.13
2023-03-06T05:16:44.852Z,1.05
2023-03-06T05:18:08.358Z,0.95
2023-03-06T05:19:31.806Z,1.00
2023-03-06T05:20:59.336Z,0.95
2023-03-06T05:22:21.772Z,1.02
2023-03-06T05:23:45.202Z,1.15
2023-03-06T05:25:10.480Z,1.10
2023-03-06T05:26:34.799Z,1.00
2023-03-06T05:28:01.068Z,1.25
2023-03-06T05:29:24.438Z,0.93
2023-03-06T05:30:49.273Z,1.00
2023-03-06T05:32:11.797Z,1.20
2023-03-06T05:33:35.557Z,1.00
2023-03-06T05:34:57.945Z,1.25
2023-03-06T05:36:21.418Z,1.35
2023-03-06T05:37:43.814Z,1.15
2023-03-06T05:39:07.499Z,0.90
2023-03-06T05:40:30.928Z,1.40
2023-03-06T05:41:54.299Z,1.05
2023-03-06T05:43:17.725Z,1.02
2023-03-06T05:44:41.734Z,0.90
2023-03-06T05:46:07.513Z,0.82
2023-03-06T05:47:31.046Z,1.00
2023-03-06T05:48:57.410Z,0.90
2023-03-06T05:50:20.933Z,1.40
2023-03-06T05:51:44.298Z,1.83
2023-03-06T05:53:07.724Z,1.30
2023-03-06T05:54:30.144Z,0.95
2023-03-06T05:55:58.848Z,1.00
2023-03-06T05:57:21.953Z,1.13
2023-03-06T05:58:46.452Z,1.20
2023-03-06T06:00:14.794Z,1.40
2023-03-06T06:01:41.232Z,1.25
2023-03-06T06:03:04.681Z,1.02
2023-03-06T06:04:27.384Z,1.10
2023-03-06T06:05:51.107Z,1.00
2023-03-06T06:07:16.083Z,1.20
2023-03-06T06:08:39.605Z,1.35
2023-03-06T06:10:04.004Z,1.40
2023-03-06T06:11:27.452Z,1.55
2023-03-06T06:12:56.673Z,1.02
2023-03-06T06:14:20.052Z,1.92
2023-03-06T06:15:43.562Z,1.40
2023-03-06T06:17:08.411Z,1.40
2023-03-06T06:18:31.805Z,1.25
2023-03-06T06:19:54.746Z,1.00
2023-03-06T06:21:18.097Z,1.05
2023-03-06T06:22:41.640Z,0.90
2023-03-06T06:24:05.254Z,1.17
2023-03-06T06:25:28.675Z,1.35
2023-03-06T06:26:52.655Z,1.33
2023-03-06T06:28:15.065Z,1.33
2023-03-06T06:29:38.544Z,1.42
2023-03-06T06:31:01.431Z,1.25
2023-03-06T06:32:26.251Z,1.42
2023-03-06T06:33:49.631Z,1.52
2023-03-06T06:35:14.670Z,1.13
2023-03-06T06:36:38.188Z,1.42
2023-03-06T06:38:01.538Z,1.15
2023-03-06T06:39:25.535Z,1.40
2023-03-06T06:41:11.744Z,1.40
2023-03-06T06:42:38.264Z,1.10
2023-03-06T06:44:07.233Z,1.67
2023-03-06T06:45:31.526Z,1.20
2023-03-06T06:48:39.856Z,1.52
2023-03-06T06:50:03.343Z,1.38
2023-03-06T06:51:25.808Z,1.30
2023-03-06T06:52:49.358Z,1.42
2023-03-06T06:54:13.548Z,1.13
2023-03-06T06:55:37.937Z,1.73
2023-03-06T06:57:01.476Z,1.77
2023-03-06T06:58:24.971Z,1.48
2023-03-06T06:59:48.364Z,1.52
2023-03-06T07:01:14.263Z,1.58
2023-03-06T07:02:37.648Z,1.42
2023-03-06T07:04:03.271Z,1.70
2023-03-06T07:05:26.699Z,1.67
2023-03-06T07:06:50.065Z,1.65
2023-03-06T07:08:13.460Z,2.03
2023-03-06T07:09:44.538Z,2.13
2023-03-06T07:11:09.528Z,1.67
2023-03-06T07:12:33.027Z,1.98
2023-03-06T07:13:56.500Z,1.70
2023-03-06T07:15:20.579Z,2.17
2023-03-06T07:16:43.944Z,2.05
2023-03-06T07:18:07.349Z,1.95
2023-03-06T07:19:32.651Z,1.80
2023-03-06T07:20:56.230Z,1.80
2023-03-06T07:22:19.806Z,1.92
2023-03-06T07:23:43.254Z,1.60
2023-03-06T07:25:07.493Z,2.30
2023-03-06T07:26:34.134Z,2.25
2023-03-06T07:27:58.038Z,1.92
2023-03-06T07:29:21.548Z,1.45
2023-03-06T07:30:45.536Z,1.70
2023-03-06T07:32:08.914Z,1.63
2023-03-06T07:33:32.453Z,1.50
2023-03-06T07:35:13.742Z,1.90
2023-03-06T07:36:40.690Z,1.73
2023-03-06T07:38:04.257Z,1.67
2023-03-06T07:39:28.040Z,1.92
2023-03-06T07:40:52.705Z,1.40
2023-03-06T07:42:16.506Z,2.10
2023-03-06T07:43:41.811Z,1.33
2023-03-06T07:45:05.046Z,1.52
2023-03-06T07:46:28.554Z,2.08
2023-03-06T07:47:55.779Z,1.70
2023-03-06T07:49:19.654Z,1.58
2023-03-06T07:50:46.610Z,2.20
2023-03-06T07:52:10.101Z,2.10
2023-03-06T07:53:33.605Z,1.90
2023-03-06T07:54:57.081Z,1.58
2023-03-06T07:56:20.482Z,1.55
2023-03-06T07:57:44.162Z,1.67
2023-03-06T07:59:07.516Z,1.48
2023-03-06T08:00:31.768Z,1.52
2023-03-06T08:01:55.983Z,1.40
2023-03-06T08:03:19.704Z,1.83
2023-03-06T08:04:43.200Z,1.70
2023-03-06T08:06:10.542Z,1.73
2023-03-06T08:07:33.945Z,1.60
2023-03-06T08:08:59.105Z,1.27
2023-03-06T08:10:22.622Z,1.30
2023-03-06T08:11:47.019Z,1.20
2023-03-06T08:13:10.371Z,1.83
2023-03-06T08:14:36.116Z,1.35
2023-03-06T08:16:00.360Z,1.27
2023-03-06T08:17:24.656Z,1.85
2023-03-06T08:18:48.106Z,1.20
2023-03-06T08:20:12.964Z,1.70
2023-03-06T08:21:37.738Z,1.50
2023-03-06T08:23:01.141Z,1.70
2023-03-06T08:24:24.542Z,2.58
2023-03-06T08:25:49.083Z,1.65
2023-03-06T08:27:12.491Z,1.05
2023-03-06T08:28:37.082Z,1.02
2023-03-06T08:30:00.974Z,1.00
2023-03-06T08:31:28.159Z,2.00
2023-03-06T08:32:51.610Z,3.10
2023-03-06T08:34:16.447Z,3.70
2023-03-06T08:35:39.879Z,1.10
2023-03-06T08:37:04.811Z,1.20
2023-03-06T08:38:28.244Z,1.30
2023-03-06T08:39:51.638Z,1.58
2023-03-06T08:41:15.007Z,1.20
2023-03-06T08:42:38.440Z,1.17
2023-03-06T08:44:01.988Z,1.35
2023-03-06T08:45:25.607Z,1.13
2023-03-06T08:46:48.948Z,1.10
2023-03-06T08:48:12.336Z,1.70
2023-03-06T08:49:36.185Z,1.10
2023-03-06T08:51:01.209Z,1.33
2023-03-06T08:52:26.036Z,1.35
2023-03-06T08:53:50.090Z,1.42
2023-03-06T08:55:15.155Z,1.80
2023-03-06T08:56:38.674Z,1.58
2023-03-06T08:58:02.592Z,0.93
2023-03-06T08:59:26.034Z,1.33
2023-03-06T09:00:51.906Z,1.13
2023-03-06T09:02:20.561Z,1.20
2023-03-06T09:03:43.994Z,1.27
2023-03-06T09:05:08.149Z,1.30
2023-03-06T09:06:32.991Z,1.00
2023-03-06T09:07:58.585Z,0.80
2023-03-06T09:09:22.325Z,1.00
2023-03-06T09:10:47.800Z,1.02
2023-03-06T09:12:11.222Z,0.70
2023-03-06T09:13:35.555Z,1.17
2023-03-06T09:14:58.982Z,1.20
2023-03-06T09:16:22.478Z,0.98
2023-03-06T09:17:46.066Z,1.00
2023-03-06T09:19:10.927Z,1.15
2023-03-06T09:20:34.346Z,0.98
2023-03-06T09:21:57.867Z,0.90
2023-03-06T09:23:22.774Z,1.02
2023-03-06T09:24:46.470Z,1.10
2023-03-06T09:26:10.116Z,0.80
2023-03-06T09:27:33.465Z,1.10
2023-03-06T09:28:56.839Z,1.02
2023-03-06T09:30:20.621Z,0.88
2023-03-06T09:31:44.089Z,0.82
2023-03-06T09:33:07.744Z,0.80
2023-03-06T09:34:33.216Z,1.30
2023-03-06T09:35:59.495Z,1.23
2023-03-06T09:37:23.298Z,1.45
2023-03-06T09:38:49.776Z,0.98
2023-03-06T09:40:18.026Z,1.98
2023-03-06T09:41:43.187Z,1.10
2023-03-06T09:43:06.683Z,0.75
2023-03-06T09:44:34.441Z,1.33
2023-03-06T09:45:58.282Z,0.80
2023-03-06T09:47:39.964Z,1.58
2023-03-06T09:49:13.106Z,1.10
2023-03-06T09:50:41.279Z,1.30
2023-03-06T09:52:12.007Z,0.80
2023-03-06T09:53:44.427Z,0.85
2023-03-06T09:55:14.336Z,0.90
2023-03-06T09:56:38.008Z,0.77
2023-03-06T09:58:07.302Z,1.40
2023-03-06T09:59:33.113Z,1.05
2023-03-06T10:01:00.972Z,0.82
2023-03-06T10:02:30.419Z,0.93
2023-03-06T10:03:57.447Z,0.65
2023-03-06T10:05:25.451Z,0.80
2023-03-06T10:06:50.236Z,0.80
2023-03-06T10:08:21.731Z,1.27
2023-03-06T10:09:49.596Z,1.60
2023-03-06T10:11:19.992Z,1.17
2023-03-06T10:12:48.483Z,1.25
2023-03-06T10:14:22.906Z,3.33
2023-03-06T10:15:48.024Z,3.85
2023-03-06T10:17:18.356Z,0.90
2023-03-06T10:18:41.859Z,3.42
2023-03-06T10:20:17.173Z,1.38
2023-03-06T10:21:48.450Z,1.17
2023-03-06T10:23:27.026Z,1.40
2023-03-06T10:24:53.454Z,0.90
2023-03-06T10:26:21.448Z,1.10
2023-03-06T10:27:48.416Z,0.70
2023-03-06T10:29:27.971Z,0.82
2023-03-06T10:30:55.870Z,1.17
2023-03-06T10:32:34.219Z,0.93
2023-03-06T10:34:16.920Z,0.60
2023-03-06T10:35:48.264Z,1.17
2023-03-06T10:37:19.474Z,0.63
2023-03-06T10:38:44.132Z,0.98
2023-03-06T10:40:16.225Z,1.05
2023-03-06T10:41:41.814Z,0.93
2023-03-06T10:43:12.264Z,0.70
2023-03-06T10:44:35.892Z,0.95
2023-03-06T10:45:59.564Z,0.77
2023-03-06T10:47:31.929Z,0.90
2023-03-06T10:49:00.415Z,0.70
2023-03-06T10:50:27.083Z,1.00
2023-03-06T10:51:59.522Z,0.80
2023-03-06T10:53:25.779Z,1.30
2023-03-06T10:54:49.634Z,1.25
2023-03-06T10:56:13.089Z,2.80
2023-03-06T10:57:37.834Z,1.15
2023-03-06T10:59:08.850Z,1.38
2023-03-06T11:00:35.947Z,1.30
2023-03-06T11:02:15.108Z,0.70
2023-03-06T11:03:38.789Z,0.90
2023-03-06T11:05:03.656Z,0.80
2023-03-06T11:06:34.603Z,1.00
2023-03-06T11:08:00.182Z,1.00
2023-03-06T11:09:25.274Z,1.27
2023-03-06T11:11:00.312Z,0.95
2023-03-06T11:12:26.894Z,0.70
2023-03-06T11:13:59.192Z,0.90
2023-03-06T11:15:24.509Z,1.00
2023-03-06T11:16:53.776Z,0.80
2023-03-06T11:18:31.024Z,0.80
2023-03-06T11:20:16.153Z,0.65
2023-03-06T11:21:40.152Z,0.65
2023-03-06T11:23:09.054Z,0.88
2023-03-06T11:24:38.052Z,1.73
2023-03-06T11:26:10.925Z,0.60
2023-03-06T11:27:35.824Z,1.00
2023-03-06T11:29:30.524Z,0.88
2023-03-06T11:30:57.842Z,1.08
2023-03-06T11:32:23.898Z,1.00
2023-03-06T11:33:51.978Z,1.08
2023-03-06T11:35:21.166Z,1.10
2023-03-06T11:36:48.528Z,2.60
2023-03-06T11:38:15.726Z,1.13
2023-03-06T11:39:45.058Z,0.80
2023-03-06T11:41:17.073Z,1.13
2023-03-06T11:42:43.556Z,1.10
2023-03-06T11:44:16.498Z,1.00
2023-03-06T11:45:45.322Z,0.65
2023-03-06T11:47:16.962Z,0.85
2023-03-06T11:48:44.794Z,0.93
2023-03-06T11:50:18.793Z,0.73
2023-03-06T11:51:45.868Z,1.30
2023-03-06T11:53:12.898Z,2.90
2023-03-06T11:54:36.365Z,2.13
2023-03-06T11:56:04.581Z,1.67
2023-03-06T11:57:33.656Z,2.15
2023-03-06T11:59:19.876Z,1.10
2023-03-06T12:00:49.659Z,2.25
2023-03-06T12:02:20.977Z,1.30
2023-03-06T12:04:08.138Z,0.93
2023-03-06T12:05:38.982Z,0.68
2023-03-06T12:07:10.764Z,1.20
2023-03-06T12:08:46.068Z,0.68
2023-03-06T12:10:16.882Z,0.98
2023-03-06T12:11:51.896Z,1.33
2023-03-06T12:13:58.661Z,0.93
2023-03-06T12:15:31.530Z,0.93
2023-03-06T12:17:07.710Z,1.25
2023-03-06T12:18:45.702Z,0.80
2023-03-06T12:20:21.804Z,0.85
2023-03-06T12:21:51.804Z,1.20
2023-03-06T12:23:31.536Z,1.17
2023-03-06T12:25:25.613Z,1.10
2023-03-06T12:26:58.478Z,0.82
2023-03-06T12:28:44.387Z,1.30
2023-03-06T12:30:47.942Z,1.15
2023-03-06T12:32:26.960Z,1.20
2023-03-06T12:33:58.616Z,1.33
2023-03-06T12:35:45.354Z,1.25
2023-03-06T12:37:18.389Z,1.10
2023-03-06T12:39:01.710Z,1.17
2023-03-06T12:40:48.992Z,0.82
2023-03-06T12:42:32.842Z,0.82
2023-03-06T12:44:05.322Z,1.08
2023-03-06T12:45:32.772Z,1.50
2023-03-06T12:46:59.633Z,1.00
2023-03-06T12:48:26.880Z,1.17
2023-03-06T12:49:54.810Z,1.40
2023-03-06T12:51:21.471Z,1.35
2023-03-06T12:52:44.935Z,1.02
2023-03-06T12:54:10.327Z,0.75
2023-03-06T12:55:40.196Z,0.95
2023-03-06T12:57:04.017Z,1.40
2023-03-06T12:58:45.700Z,1.00
2023-03-06T13:00:11.723Z,0.73
2023-03-06T13:01:51.247Z,0.55
2023-03-06T13:03:17.980Z,1.10
2023-03-06T13:05:13.383Z,0.85
2023-03-06T13:06:51.853Z,1.67
2023-03-06T13:08:46.465Z,0.98
2023-03-06T13:10:16.575Z,1.88
2023-03-06T13:12:12.794Z,1.15
2023-03-06T13:13:44.069Z,1.08
2023-03-06T13:15:36.934Z,0.77
2023-03-06T13:17:27.640Z,0.88
2023-03-06T13:18:56.484Z,1.23
2023-03-06T13:20:36.998Z,1.00
2023-03-06T13:22:04.401Z,1.00
2023-03-06T13:23:52.396Z,1.70
2023-03-06T13:25:43.737Z,1.45
2023-03-06T13:27:09.353Z,1.23
2023-03-06T13:28:44.870Z,1.20
2023-03-06T13:30:23.684Z,1.27
2023-03-06T13:32:06.629Z,1.70
2023-03-06T13:33:54.796Z,1.38
2023-03-06T13:35:48.674Z,1.05
2023-03-06T13:37:38.768Z,1.90
2023-03-06T13:39:06.693Z,1.80
2023-03-06T13:40:34.641Z,1.55
2023-03-06T13:42:00.201Z,0.80
2023-03-06T13:43:25.027Z,0.77
2023-03-06T13:44:51.035Z,0.85
2023-03-06T13:46:24.761Z,1.50
2023-03-06T13:48:21.083Z,1.20
2023-03-06T13:49:37.466Z,1.38
2023-03-06T13:51:16.041Z,1.50
2023-03-06T13:52:46.449Z,1.40
2023-03-06T13:54:31.636Z,1.40
2023-03-06T13:56:04.984Z,0.90
2023-03-06T13:57:41.147Z,1.05
2023-03-06T13:59:18.898Z,0.63
2023-03-06T14:01:01.782Z,1.30
2023-03-06T14:02:52.074Z,1.00
2023-03-06T14:04:30.659Z,1.15
2023-03-06T14:05:54.120Z,1.35
2023-03-06T14:07:26.259Z,1.00
2023-03-06T14:08:51.124Z,1.30
2023-03-06T14:10:23.074Z,1.20
2023-03-06T14:11:50.010Z,1.13
2023-03-06T14:13:19.395Z,1.02
2023-03-06T14:14:45.318Z,1.80
2023-03-06T14:16:14.177Z,2.28
2023-03-06T14:17:39.528Z,2.00
2023-03-06T14:19:04.078Z,2.00
2023-03-06T14:20:34.670Z,1.52
2023-03-06T14:21:58.657Z,1.60
2023-03-06T14:23:29.099Z,1.80
2023-03-06T14:25:01.423Z,1.10
2023-03-06T14:26:26.322Z,0.93
2023-03-06T14:27:51.429Z,1.40
2023-03-06T14:29:22.734Z,1.35
2023-03-06T14:30:50.950Z,1.45
2023-03-06T14:32:17.314Z,1.23
2023-03-06T14:33:45.214Z,0.80
2023-03-06T14:35:19.117Z,1.05
2023-03-06T14:36:45.528Z,1.30
2023-03-06T14:38:08.986Z,0.98
2023-03-06T14:39:36.500Z,0.90
2023-03-06T14:41:01.302Z,1.17
2023-03-06T14:42:25.861Z,1.23
2023-03-06T14:43:49.216Z,1.20
2023-03-06T14:45:17.525Z,1.10
2023-03-06T14:46:40.992Z,1.13
2023-03-06T14:48:07.049Z,1.10
2023-03-06T14:49:30.467Z,0.98
2023-03-06T14:50:55.712Z,0.88
2023-03-06T14:52:21.286Z,1.95
2023-03-06T14:53:45.719Z,1.42
2023-03-06T14:55:14.658Z,1.85
2023-03-06T14:56:42.895Z,1.27
2023-03-06T14:58:09.284Z,0.80
2023-03-06T14:59:41.501Z,0.90
2023-03-06T15:01:07.618Z,1.02
2023-03-06T15:02:38.316Z,0.63
2023-03-06T15:04:02.663Z,1.83
2023-03-06T15:05:29.931Z,0.90
2023-03-06T15:06:53.535Z,1.13
2023-03-06T15:08:20.168Z,1.80
2023-03-06T15:09:45.882Z,1.48
2023-03-06T15:11:09.358Z,1.35
2023-03-06T15:12:39.610Z,1.98
2023-03-06T15:14:04.310Z,1.40
2023-03-06T15:15:31.181Z,1.10
2023-03-06T15:16:55.378Z,1.20
2023-03-06T15:18:29.709Z,1.25
2023-03-06T15:19:55.445Z,1.15
2023-03-06T15:21:20.591Z,1.48
2023-03-06T15:22:45.326Z,1.65
2023-03-06T15:24:31.590Z,1.33
2023-03-06T15:25:57.849Z,1.60
2023-03-06T15:27:31.407Z,2.38
2023-03-06T15:29:13.487Z,1.10
2023-03-06T15:30:38.755Z,1.35
2023-03-06T15:32:23.790Z,1.00
2023-03-06T15:34:12.549Z,0.90
2023-03-06T15:35:37.884Z,0.98
2023-03-06T15:37:01.737Z,1.08
2023-03-06T15:38:27.789Z,1.42
2023-03-06T15:40:06.548Z,0.80
2023-03-06T15:41:34.854Z,0.70
2023-03-06T15:42:59.526Z,1.02
2023-03-06T15:44:24.396Z,0.98
2023-03-06T15:45:48.046Z,0.88
2023-03-06T15:47:12.602Z,0.85
2023-03-06T15:48:36.345Z,1.05
2023-03-06T15:49:59.835Z,1.00
2023-03-06T15:51:23.418Z,0.82
2023-03-06T15:52:47.348Z,0.82
2023-03-06T15:54:12.582Z,0.70
2023-03-06T15:55:36.338Z,0.60
2023-03-06T15:56:59.744Z,0.82
2023-03-06T15:58:26.662Z,1.10
2023-03-06T15:59:52.107Z,0.98
2023-03-06T16:01:18.200Z,0.90
2023-03-06T16:02:41.553Z,1.00
2023-03-06T16:04:05.006Z,1.15
2023-03-06T16:05:29.084Z,1.38
2023-03-06T16:06:52.457Z,1.08
2023-03-06T16:08:16.206Z,2.28
2023-03-06T16:09:42.461Z,0.73
2023-03-06T16:11:06.081Z,1.70
2023-03-06T16:12:30.877Z,1.13
2023-03-06T16:13:54.950Z,0.85
2023-03-06T16:15:25.288Z,1.48
2023-03-06T16:16:49.349Z,0.98
2023-03-06T16:18:14.270Z,1.17
2023-03-06T16:19:37.621Z,1.27
2023-03-06T16:21:01.686Z,1.20
2023-03-06T16:22:25.122Z,1.02
2023-03-06T16:23:48.502Z,0.73
2023-03-06T16:25:11.106Z,1.20
2023-03-06T16:26:37.097Z,1.05
2023-03-06T16:28:01.066Z,1.15
2023-03-06T16:29:25.999Z,0.90
2023-03-06T16:30:50.772Z,1.27
2023-03-06T16:32:14.277Z,1.10
2023-03-06T16:33:37.679Z,0.90
2023-03-06T16:35:01.052Z,0.80
2023-03-06T16:36:27.116Z,1.15
2023-03-06T16:37:50.599Z,3.03
2023-03-06T16:39:15.856Z,1.17
2023-03-06T16:40:41.285Z,2.17
2023-03-06T16:42:04.983Z,1.58
2023-03-06T16:43:28.358Z,1.40
2023-03-06T16:44:51.705Z,0.98
2023-03-06T16:46:18.662Z,0.88
2023-03-06T16:47:42.135Z,0.93
2023-03-06T16:49:05.499Z,1.08
2023-03-06T16:50:30.660Z,1.05
2023-03-06T16:51:54.829Z,1.13
2023-03-06T16:53:19.238Z,1.50
2023-03-06T16:54:44.590Z,1.27
2023-03-06T16:56:09.789Z,1.00
2023-03-06T16:57:35.647Z,0.90
2023-03-06T16:58:59.009Z,0.70
2023-03-06T17:00:24.628Z,1.00
2023-03-06T17:01:49.398Z,1.02
2023-03-06T17:03:12.921Z,1.23
2023-03-06T17:04:36.355Z,1.13
2023-03-06T17:05:59.901Z,1.60
2023-03-06T17:07:23.285Z,0.82
2023-03-06T17:08:46.842Z,1.58
2023-03-06T17:10:12.546Z,1.48
2023-03-06T17:11:38.432Z,1.55
2023-03-06T17:13:02.404Z,1.85
2023-03-06T17:14:25.762Z,1.40
2023-03-06T17:15:59.304Z,1.00
2023-03-06T17:17:26.576Z,1.52
2023-03-06T17:18:50.120Z,1.25
2023-03-06T17:20:14.282Z,1.45
2023-03-06T17:21:38.557Z,1.40
2023-03-06T17:23:02.010Z,1.23
2023-03-06T17:24:25.388Z,1.73
2023-03-06T17:25:49.109Z,1.33
2023-03-06T17:27:12.881Z,1.38
2023-03-06T17:28:38.065Z,1.23
2023-03-06T17:30:01.587Z,1.42
2023-03-06T17:31:26.653Z,1.30
2023-03-06T17:32:51.478Z,1.83
2023-03-06T17:34:15.765Z,1.80
2023-03-06T17:35:39.244Z,2.00
2023-03-06T17:37:02.981Z,2.22
2023-03-06T17:38:26.387Z,2.00
2023-03-06T17:39:50.744Z,2.03
2023-03-06T17:41:14.614Z,1.92
2023-03-06T17:42:38.039Z,1.83
2023-03-06T17:44:01.716Z,1.42
2023-03-06T17:45:25.601Z,1.48
2023-03-06T17:46:49.829Z,1.80
2023-03-06T17:48:14.775Z,1.58
2023-03-06T17:49:38.190Z,1.33
2023-03-06T17:51:10.410Z,2.10
2023-03-06T17:52:33.807Z,2.17
2023-03-06T17:53:57.436Z,1.38
2023-03-06T17:55:20.813Z,2.00
2023-03-06T17:56:44.296Z,2.35
2023-03-06T17:58:08.600Z,2.15
2023-03-06T17:59:34.906Z,1.83
2023-03-06T18:00:58.309Z,1.80
2023-03-06T18:02:21.684Z,2.30
2023-03-06T18:03:48.764Z,2.33
2023-03-06T18:05:12.492Z,2.28
2023-03-06T18:06:35.942Z,2.70
2023-03-06T18:07:59.597Z,2.70
2023-03-06T18:09:22.971Z,2.25
2023-03-06T18:10:47.588Z,2.40
2023-03-06T18:12:11.264Z,2.83
2023-03-06T18:13:35.109Z,2.33
2023-03-06T18:14:58.560Z,2.35
2023-03-06T18:16:24.372Z,2.22
2023-03-06T18:17:47.891Z,1.85
2023-03-06T18:19:12.913Z,2.50
2023-03-06T18:20:36.357Z,2.40
2023-03-06T18:22:00.487Z,2.50
2023-03-06T18:23:24.748Z,2.80
2023-03-06T18:24:51.403Z,2.42
2023-03-06T18:26:16.445Z,3.05
2023-03-06T18:27:39.838Z,2.95
2023-03-06T18:29:04.902Z,2.90
2023-03-06T18:30:29.252Z,3.03
2023-03-06T18:31:53.133Z,2.80
2023-03-06T18:33:16.512Z,3.70
2023-03-06T18:34:41.282Z,3.20
2023-03-06T18:36:04.973Z,3.78
2023-03-06T18:37:28.496Z,3.38
2023-03-06T18:38:52.140Z,3.20
2023-03-06T18:40:15.980Z,3.83
2023-03-06T18:41:39.696Z,3.72
2023-03-06T18:43:03.069Z,3.53
2023-03-06T18:44:26.510Z,3.58
2023-03-06T18:45:55.348Z,3.45
2023-03-06T18:47:18.899Z,4.32
2023-03-06T18:48:42.278Z,3.80
2023-03-06T18:50:08.006Z,3.10
2023-03-06T18:51:31.904Z,3.17
2023-03-06T18:52:55.307Z,4.38
2023-03-06T18:54:19.874Z,3.72
2023-03-06T18:55:49.040Z,3.38
2023-03-06T18:57:12.405Z,3.60
2023-03-06T18:58:35.786Z,3.30
2023-03-06T18:59:59.170Z,3.90
2023-03-06T19:01:23.308Z,3.40
2023-03-06T19:02:46.696Z,3.78
2023-03-06T19:04:10.164Z,3.40
2023-03-06T19:05:33.919Z,3.28
2023-03-06T19:06:57.283Z,4.03
2023-03-06T19:08:20.656Z,3.75
2023-03-06T19:09:44.487Z,3.67
2023-03-06T19:11:09.148Z,3.63
2023-03-06T19:12:35.420Z,4.20
2023-03-06T19:13:59.030Z,3.92